KCGI/CGI METAR and TAF weather

Enter ICAO airport designator
Station Type Date Time Source
KCGI METAR 2019/08/24 19:53 UTC NOAA

KCGI 241953Z 07006KT 10SM FEW110 26/16 A3006 RMK AO2 SLP176 T02560156


Station Type Date Time Source
KCGI Decoded METAR 2019/08/24 19:53 UTC NOAA

Station name not available
Aug 24, 2019 - 03:53 PM EDT / 2019.08.24 1953 UTC
Wind: from the ENE (070 degrees) at 7 MPH (6 KT):0
Visibility: 10 mile(s):0
Sky conditions: mostly clear
Temperature: 78.1 F (25.6 C)
Dew Point: 60.1 F (15.6 C)
Relative Humidity: 53%
Pressure (altimeter): 30.06 in. Hg (1017 hPa)
ob: KCGI 241953Z 07006KT 10SM FEW110 26/16 A3006 RMK AO2 SLP176 T02560156
cycle: 20

Station Type Date Time Source
KCGI TAF 2019/08/24 18:22 UTC NOAA

TAF KCGI 241720Z 2418/2518 07010G18KT P6SM SCT100 BKN200
FM250000 06004KT P6SM FEW050 BKN150
FM251200 09005KT P6SM BKN025 PROB30 2512/2518 -SHRA

Example: see airport list